Time;durP1;ratioP1;P1;durP2;ratioP2;P2;SDS_P1;SDS_P2;PMS_P1;PMS_P2;Temp;Humidity;BMP_temperature;BMP_pressure;BME280_temperature;BME280_humidity;BME280_pressure;Samples;Min_cycle;Max_cycle;Signal;HPM_P1;HPM_P2
2023/08/27 08:48:06;;;;;;;6.45;3.28;;;;;;;15.73;100.00;100703.38;5070893;28;20399;-71
2023/08/27 08:50:35;;;;;;;8.95;3.30;;;;;;;15.85;100.00;100702.38;5088882;28;20546;-72
2023/08/27 08:53:14;;;;;;;6.65;3.10;;;;;;;16.01;100.00;100693.19;5086871;28;20040;-71
2023/08/27 08:55:45;;;;;;;7.15;2.72;;;;;;;16.15;100.00;100689.97;5069367;28;20033;-71
2023/08/27 08:58:12;;;;;;;9.60;3.00;;;;;;;16.16;100.00;100689.72;5068033;28;20059;-72
2023/08/27 09:00:38;;;;;;;8.18;2.75;;;;;;;16.20;100.00;100692.72;5067240;28;20028;-70
2023/08/27 09:03:04;;;;;;;6.45;2.65;;;;;;;16.27;100.00;100690.56;5069475;28;20151;-71
2023/08/27 09:05:31;;;;;;;6.20;2.15;;;;;;;16.28;100.00;100689.47;5082434;28;20382;-72
2023/08/27 09:07:57;;;;;;;8.57;2.33;;;;;;;16.30;100.00;100687.31;5088184;28;20035;-72
2023/08/27 09:10:24;;;;;;;8.13;2.22;;;;;;;16.23;100.00;100684.81;5089259;28;20036;-73
2023/08/27 09:12:55;;;;;;;7.03;2.28;;;;;;;16.30;100.00;100679.09;5078267;28;20032;-71
2023/08/27 09:15:21;;;;;;;6.38;2.20;;;;;;;16.36;100.00;100678.03;5066410;28;20052;-67
2023/08/27 09:17:47;;;;;;;6.82;2.00;;;;;;;16.48;100.00;100678.63;5048926;28;20084;-68
2023/08/27 09:20:12;;;;;;;5.53;1.92;;;;;;;16.62;100.00;100669.91;5049192;28;20119;-69
2023/08/27 09:22:38;;;;;;;4.78;1.95;;;;;;;16.73;100.00;100674.31;5062856;28;20024;-70
2023/08/27 09:25:05;;;;;;;5.00;1.88;;;;;;;16.86;100.00;100667.50;5071716;28;20040;-69
2023/08/27 09:27:31;;;;;;;5.47;1.83;;;;;;;16.99;100.00;100671.66;5051552;28;20033;-75
2023/08/27 09:30:00;;;;;;;4.93;2.00;;;;;;;17.14;100.00;100659.91;5047480;28;20033;-70
2023/08/27 09:32:26;;;;;;;4.93;2.15;;;;;;;17.13;100.00;100664.53;5048155;28;20021;-68
2023/08/27 09:34:59;;;;;;;6.72;2.10;;;;;;;17.22;100.00;100655.78;5068345;28;20440;-69
2023/08/27 09:37:27;;;;;;;5.13;1.80;;;;;;;17.05;100.00;100653.34;5065239;28;20111;-70
2023/08/27 09:39:52;;;;;;;6.57;2.40;;;;;;;16.92;100.00;100652.75;5033935;28;20038;-70
2023/08/27 09:42:18;;;;;;;3.47;1.88;;;;;;;16.86;100.00;100648.34;5028548;28;20025;-69
2023/08/27 09:44:51;;;;;;;7.43;2.20;;;;;;;16.96;100.00;100650.31;5028597;28;20030;-69
2023/08/27 09:47:28;;;;;;;5.38;2.17;;;;;;;17.06;100.00;100644.88;5027745;28;20456;-69
2023/08/27 09:49:53;;;;;;;7.35;2.33;;;;;;;17.12;100.00;100637.47;5028433;28;20148;-69
2023/08/27 09:52:23;;;;;;;7.75;2.30;;;;;;;17.14;100.00;100643.50;5028538;28;20117;-69
2023/08/27 09:54:48;;;;;;;6.00;2.20;;;;;;;17.23;100.00;100641.03;5055626;28;20032;-69
2023/08/27 09:57:18;;;;;;;5.28;1.90;;;;;;;17.22;100.00;100653.88;5066859;28;20064;-69
2023/08/27 09:59:44;;;;;;;6.78;1.80;;;;;;;17.20;100.00;100639.66;5049483;28;20037;-68
2023/08/27 10:02:14;;;;;;;7.63;1.98;;;;;;;17.21;100.00;100654.13;5032327;28;20040;-69
2023/08/27 10:04:51;;;;;;;4.43;1.95;;;;;;;17.33;100.00;100654.66;5034789;28;20057;-69
2023/08/27 10:07:17;;;;;;;5.00;1.83;;;;;;;17.35;100.00;100647.03;5034504;28;20599;-72
2023/08/27 10:09:42;;;;;;;6.65;2.33;;;;;;;17.44;100.00;100650.03;5033856;28;20041;-69
2023/08/27 10:12:11;;;;;;;7.90;2.17;;;;;;;17.46;100.00;100643.16;5048997;28;20078;-69
2023/08/27 10:14:40;;;;;;;7.15;2.20;;;;;;;17.53;100.00;100648.38;5055062;28;20448;-69
2023/08/27 10:17:05;;;;;;;8.73;2.28;;;;;;;17.60;100.00;100653.53;5053701;28;20040;-69
2023/08/27 10:19:34;;;;;;;5.85;1.75;;;;;;;17.67;100.00;100651.34;5054959;28;20033;-70
2023/08/27 10:22:00;;;;;;;7.18;2.05;;;;;;;17.71;100.00;100652.44;5053711;28;20050;-70
2023/08/27 10:24:25;;;;;;;5.30;1.80;;;;;;;17.77;100.00;100651.31;5034153;28;20025;-69
2023/08/27 10:26:51;;;;;;;6.43;1.80;;;;;;;17.86;100.00;100654.28;5047740;28;20178;-69
2023/08/27 10:29:17;;;;;;;3.55;1.60;;;;;;;17.94;100.00;100644.75;5054513;28;20049;-69
2023/08/27 10:31:42;;;;;;;6.50;1.83;;;;;;;17.88;100.00;100647.44;5054954;28;20033;-68
2023/08/27 10:34:08;;;;;;;3.45;1.52;;;;;;;17.92;100.00;100645.03;5054638;28;20522;-69
2023/08/27 10:36:36;;;;;;;4.07;1.48;;;;;;;17.92;100.00;100647.75;5054387;28;20033;-69
2023/08/27 10:39:07;;;;;;;4.20;1.63;;;;;;;17.85;100.00;100650.75;5054612;28;20464;-69
2023/08/27 10:41:34;;;;;;;5.05;1.48;;;;;;;17.78;100.00;100650.22;5032750;28;20075;-69
2023/08/27 10:44:00;;;;;;;5.95;1.48;;;;;;;17.67;100.00;100654.91;5049593;28;20039;-70
2023/08/27 10:46:26;;;;;;;3.67;1.50;;;;;;;17.66;100.00;100660.66;5035820;28;20400;-69
2023/08/27 10:48:53;;;;;;;4.05;1.40;;;;;;;17.77;100.00;100665.00;5034595;28;20026;-69
2023/08/27 10:51:21;;;;;;;3.47;1.30;;;;;;;17.79;100.00;100660.06;5032786;28;20033;-69
2023/08/27 10:53:49;;;;;;;4.95;1.70;;;;;;;17.74;100.00;100671.03;5034339;28;20025;-69
2023/08/27 10:56:32;;;;;;;2.83;1.40;;;;;;;17.76;100.00;100663.38;5034075;28;20033;-69
2023/08/27 10:59:28;;;;;;;4.10;1.73;;;;;;;17.73;100.00;100658.44;5021557;28;20505;-70
2023/08/27 11:01:53;;;;;;;3.83;1.58;;;;;;;17.71;100.00;100655.19;5009615;28;20452;-67
2023/08/27 11:04:18;;;;;;;5.43;1.52;;;;;;;17.87;100.00;100662.25;5014142;28;20038;-73
2023/08/27 11:06:46;;;;;;;3.83;1.70;;;;;;;17.99;100.00;100656.47;5014320;28;20058;-74
2023/08/27 11:09:28;;;;;;;3.97;1.58;;;;;;;18.16;100.00;100653.41;5029374;28;20496;-73
2023/08/27 11:11:54;;;;;;;;;;;;;;;18.30;100.00;100650.03;5022392;28;20034;-69
2023/08/27 11:14:21;;;;;;;2.10;0.95;;;;;;;18.09;86.37;100655.63;5035174;28;19919;-73
2023/08/27 11:17:03;;;;;;;2.70;1.13;;;;;;;17.99;95.88;100661.13;5033886;28;20389;-71
2023/08/27 11:19:37;;;;;;;3.15;1.20;;;;;;;17.88;96.81;100671.28;5033704;28;20115;-75
2023/08/27 11:22:20;;;;;;;4.45;1.40;;;;;;;17.85;100.00;100694.53;5021634;28;20029;-72
2023/08/27 11:24:48;;;;;;;8.93;2.15;;;;;;;17.46;100.00;100718.97;5032142;28;20021;-69
2023/08/27 11:27:18;;;;;;;4.00;1.42;;;;;;;16.69;100.00;100727.03;5033284;28;20052;-74
2023/08/27 11:29:46;;;;;;;6.53;1.92;;;;;;;16.11;100.00;100726.00;5031740;28;20409;-71
2023/08/27 11:32:13;;;;;;;4.32;1.65;;;;;;;15.80;100.00;100716.81;5031097;28;20025;-71
2023/08/27 11:34:44;;;;;;;3.03;1.00;;;;;;;15.89;100.00;100714.41;5033727;28;20040;-70
2023/08/27 11:37:10;;;;;;;3.92;1.23;;;;;;;16.05;100.00;100715.31;5030835;28;20039;-69
2023/08/27 11:39:37;;;;;;;4.13;1.35;;;;;;;16.05;100.00;100713.41;5031620;28;20080;-69
2023/08/27 11:42:09;;;;;;;4.90;1.00;;;;;;;16.07;100.00;100715.88;5032420;28;20040;-76
2023/08/27 11:44:34;;;;;;;2.08;1.00;;;;;;;15.94;100.00;100723.44;5030184;28;20033;-70
2023/08/27 11:47:05;;;;;;;0.77;0.52;;;;;;;15.93;100.00;100727.25;5030861;28;20046;-70
2023/08/27 11:49:31;;;;;;;1.13;0.80;;;;;;;15.81;100.00;100718.47;5046455;28;20086;-69
2023/08/27 11:51:58;;;;;;;3.00;1.00;;;;;;;15.62;100.00;100722.66;5036809;28;20786;-72
2023/08/27 11:54:28;;;;;;;1.83;0.90;;;;;;;15.62;100.00;100719.94;5052672;28;20147;-70
2023/08/27 11:56:55;;;;;;;2.07;0.80;;;;;;;15.57;100.00;100723.44;5052774;28;20029;-72
2023/08/27 11:59:22;;;;;;;0.90;0.90;;;;;;;15.58;100.00;100722.38;5044713;28;20029;-70
2023/08/27 12:01:47;;;;;;;1.33;0.70;;;;;;;15.40;100.00;100724.41;5026973;28;20469;-71
2023/08/27 12:04:13;;;;;;;1.08;0.60;;;;;;;15.38;100.00;100726.59;5023894;28;20037;-70
2023/08/27 12:06:50;;;;;;;0.65;0.57;;;;;;;15.37;100.00;100729.56;5046259;28;20028;-74
2023/08/27 12:09:22;;;;;;;1.30;0.70;;;;;;;15.26;100.00;100744.19;5040574;28;20035;-70
2023/08/27 12:11:48;;;;;;;1.70;0.73;;;;;;;15.14;100.00;100749.78;5032955;28;20033;-70
2023/08/27 12:14:21;;;;;;;4.30;0.90;;;;;;;14.99;100.00;100762.19;5032092;28;20040;-73
2023/08/27 12:16:47;;;;;;;7.57;1.13;;;;;;;14.87;100.00;100758.78;5029474;28;20026;-70
2023/08/27 12:19:13;;;;;;;2.35;0.90;;;;;;;14.76;100.00;100757.03;5023871;28;20127;-70
2023/08/27 12:21:53;;;;;;;3.00;0.93;;;;;;;14.69;100.00;100768.94;5031074;28;20057;-75
2023/08/27 12:24:34;;;;;;;1.33;0.80;;;;;;;14.69;100.00;100752.59;5013677;28;20038;-70
2023/08/27 12:27:06;;;;;;;1.13;0.82;;;;;;;14.65;100.00;100740.56;5011658;28;20113;-73
2023/08/27 12:29:41;;;;;;;;;;;;;;;14.93;100.00;100740.59;5013192;28;20052;-69
2023/08/27 12:32:12;;;;;;;1.35;0.90;;;;;;;14.85;100.00;100739.97;5028496;28;19913;-70
2023/08/27 12:34:39;;;;;;;2.75;0.80;;;;;;;14.81;100.00;100736.13;5038120;28;20030;-70
2023/08/27 12:37:05;;;;;;;1.90;0.98;;;;;;;14.82;100.00;100734.22;5012873;28;20038;-69
2023/08/27 12:39:31;;;;;;;2.30;1.00;;;;;;;14.89;100.00;100732.13;5012675;28;20089;-69
2023/08/27 12:41:58;;;;;;;1.17;0.90;;;;;;;14.86;100.00;100729.91;5022264;28;20431;-70
2023/08/27 12:44:23;;;;;;;2.13;0.98;;;;;;;14.91;100.00;100729.94;5029305;28;20057;-71
2023/08/27 12:46:49;;;;;;;1.50;0.80;;;;;;;15.01;100.00;100724.59;5040571;28;20080;-70
2023/08/27 12:49:14;;;;;;;2.45;0.80;;;;;;;15.08;100.00;100727.09;5031498;28;20034;-70
2023/08/27 12:51:39;;;;;;;1.15;0.80;;;;;;;15.07;100.00;100720.84;5031672;28;20089;-70
2023/08/27 12:54:05;;;;;;;1.10;0.75;;;;;;;15.15;100.00;100727.72;5029830;28;20037;-69
2023/08/27 12:56:30;;;;;;;2.08;0.80;;;;;;;15.14;100.00;100747.06;5042897;28;20025;-70
2023/08/27 12:58:55;;;;;;;2.15;0.93;;;;;;;15.20;100.00;100741.41;5032512;28;20032;-70
2023/08/27 13:01:21;;;;;;;3.05;1.00;;;;;;;15.28;100.00;100748.31;5028982;28;20036;-70
2023/08/27 13:03:46;;;;;;;2.47;0.90;;;;;;;15.30;100.00;100748.03;5032227;28;20032;-69
2023/08/27 13:06:11;;;;;;;4.53;1.10;;;;;;;15.31;100.00;100745.06;5036527;28;20097;-70
2023/08/27 13:08:37;;;;;;;1.85;0.75;;;;;;;15.34;100.00;100752.72;5043062;28;20453;-69
2023/08/27 13:11:03;;;;;;;2.30;1.10;;;;;;;15.36;100.00;100747.81;5032284;28;20029;-71
2023/08/27 13:13:30;;;;;;;3.55;1.13;;;;;;;15.37;100.00;100754.91;5032030;28;20034;-69
2023/08/27 13:15:56;;;;;;;2.03;1.30;;;;;;;15.26;100.00;100745.00;5032551;28;20033;-69
2023/08/27 13:18:21;;;;;;;1.27;0.90;;;;;;;15.29;100.00;100739.03;5031983;28;20033;-71
2023/08/27 13:20:47;;;;;;;2.85;0.90;;;;;;;15.30;100.00;100737.94;5032105;28;20450;-69
2023/08/27 13:23:13;;;;;;;1.40;0.75;;;;;;;15.24;100.00;100736.25;5030114;28;20428;-70
2023/08/27 13:25:39;;;;;;;1.20;1.10;;;;;;;15.30;100.00;100729.78;5049419;28;20119;-70
2023/08/27 13:28:05;;;;;;;1.58;1.13;;;;;;;15.36;100.00;100728.72;5051995;28;20115;-70
2023/08/27 13:30:31;;;;;;;2.53;1.15;;;;;;;15.62;100.00;100728.13;5051807;28;20021;-70
2023/08/27 13:32:56;;;;;;;1.80;1.10;;;;;;;15.75;100.00;100730.41;5049254;28;20415;-73
2023/08/27 13:35:22;;;;;;;3.53;1.20;;;;;;;15.95;100.00;100735.19;5032761;28;20030;-69
2023/08/27 13:37:48;;;;;;;2.45;1.40;;;;;;;16.00;100.00;100731.66;5016050;28;20034;-69
2023/08/27 13:40:13;;;;;;;3.55;1.42;;;;;;;16.00;100.00;100737.94;5015778;28;20040;-68
2023/08/27 13:42:38;;;;;;;1.65;1.27;;;;;;;15.95;100.00;100729.72;5030704;28;20074;-69
2023/08/27 13:45:04;;;;;;;1.70;1.40;;;;;;;15.95;100.00;100736.00;5037644;28;20029;-70
2023/08/27 13:47:29;;;;;;;1.75;1.25;;;;;;;16.02;100.00;100734.94;5035468;28;20052;-69
2023/08/27 13:49:55;;;;;;;1.45;1.35;;;;;;;16.07;100.00;100729.53;5035532;28;20350;-69
2023/08/27 13:52:20;;;;;;;2.50;1.80;;;;;;;16.18;100.00;100733.13;5035500;28;20535;-70
2023/08/27 13:54:48;;;;;;;1.70;1.60;;;;;;;16.27;100.00;100737.81;5035297;28;20036;-70
2023/08/27 13:57:14;;;;;;;2.38;1.60;;;;;;;16.37;100.00;100728.84;5027439;28;20034;-68
2023/08/27 13:59:40;;;;;;;5.45;2.00;;;;;;;16.47;100.00;100720.69;5049545;28;20029;-68
2023/08/27 14:02:07;;;;;;;1.92;1.77;;;;;;;16.73;100.00;100715.31;5053049;28;20531;-69
2023/08/27 14:04:32;;;;;;;3.58;2.40;;;;;;;16.76;100.00;100728.44;5053741;28;20115;-68
2023/08/27 14:06:58;;;;;;;5.22;2.45;;;;;;;17.00;100.00;100728.78;5035921;28;20183;-67
2023/08/27 14:09:23;;;;;;;2.38;2.17;;;;;;;17.19;100.00;100722.78;5035307;28;20079;-69
2023/08/27 14:11:49;;;;;;;4.90;3.08;;;;;;;17.29;100.00;100730.19;5035272;28;20025;-70
2023/08/27 14:14:14;;;;;;;3.92;2.67;;;;;;;17.44;100.00;100732.09;5042323;28;20026;-68
2023/08/27 14:16:39;;;;;;;2.83;2.33;;;;;;;17.47;100.00;100720.59;5028374;28;20037;-68
2023/08/27 14:19:05;;;;;;;3.35;2.38;;;;;;;17.68;100.00;100727.69;5025165;28;20053;-68
2023/08/27 14:21:30;;;;;;;3.10;2.50;;;;;;;17.72;100.00;100727.94;5048774;28;20020;-68
2023/08/27 14:23:55;;;;;;;3.63;2.40;;;;;;;17.97;100.00;100720.84;5041212;28;20638;-70
2023/08/27 14:26:21;;;;;;;4.93;2.10;;;;;;;18.09;100.00;100726.81;5034559;28;20033;-70
2023/08/27 14:28:46;;;;;;;2.67;2.00;;;;;;;18.46;100.00;100735.72;5033747;28;20033;-70
2023/08/27 14:31:12;;;;;;;2.80;1.80;;;;;;;18.68;100.00;100738.09;5034992;28;20449;-68
2023/08/27 14:33:37;;;;;;;1.90;1.63;;;;;;;18.76;100.00;100732.00;5031566;28;20555;-71
2023/08/27 14:36:03;;;;;;;1.40;1.00;;;;;;;18.62;85.02;100736.47;5026850;28;20026;-69
2023/08/27 14:38:28;;;;;;;2.20;1.15;;;;;;;18.67;92.52;100736.44;5026575;28;20083;-68
2023/08/27 14:40:53;;;;;;;3.80;1.20;;;;;;;18.93;100.00;100728.91;5037894;28;20116;-68
2023/08/27 14:43:19;;;;;;;1.42;1.00;;;;;;;19.20;100.00;100728.44;5026072;28;20116;-68
2023/08/27 14:45:44;;;;;;;3.35;1.20;;;;;;;19.44;95.97;100722.22;5025906;28;20048;-68
2023/08/27 14:48:09;;;;;;;2.88;1.15;;;;;;;19.63;89.88;100714.91;5025109;28;20025;-68
2023/08/27 14:50:35;;;;;;;1.38;1.00;;;;;;;19.77;79.43;100708.75;5030656;28;20165;-69
2023/08/27 14:53:02;;;;;;;1.58;1.00;;;;;;;19.94;94.07;100700.91;5030470;28;20033;-69
2023/08/27 14:55:29;;;;;;;3.47;1.20;;;;;;;20.16;81.88;100716.03;5033441;28;20381;-68
2023/08/27 14:57:55;;;;;;;2.55;1.15;;;;;;;20.17;72.99;100704.75;5032615;28;20044;-71
2023/08/27 15:00:20;;;;;;;1.88;1.10;;;;;;;20.27;78.22;100716.72;5022382;28;20124;-68
2023/08/27 15:02:46;;;;;;;2.83;1.17;;;;;;;19.86;76.97;100718.00;5023272;28;20272;-69
2023/08/27 15:05:12;;;;;;;1.38;1.23;;;;;;;19.28;82.81;100730.59;5036491;28;20037;-69
2023/08/27 15:07:38;;;;;;;1.63;1.17;;;;;;;18.87;90.36;100730.03;5030830;28;20030;-69
2023/08/27 15:10:05;;;;;;;2.90;1.27;;;;;;;18.77;96.43;100731.72;5029945;28;20500;-71
2023/08/27 15:12:30;;;;;;;2.03;1.20;;;;;;;18.62;100.00;100737.28;5033456;28;20477;-71
2023/08/27 15:14:56;;;;;;;3.95;1.15;;;;;;;19.02;81.83;100740.94;5034098;28;20075;-70
2023/08/27 15:17:21;;;;;;;1.55;1.42;;;;;;;19.42;75.23;100735.41;5031712;28;20381;-69
2023/08/27 15:19:46;;;;;;;2.50;1.08;;;;;;;19.76;74.58;100746.38;5043380;28;20465;-69
2023/08/27 15:22:12;;;;;;;2.95;1.38;;;;;;;20.11;74.20;100740.78;5045289;28;20070;-69
2023/08/27 15:24:37;;;;;;;3.03;1.30;;;;;;;20.19;70.61;100745.66;5035657;28;20033;-68
2023/08/27 15:27:03;;;;;;;3.00;1.40;;;;;;;19.83;69.33;100749.59;5032653;28;20034;-69
2023/08/27 15:29:28;;;;;;;2.88;1.23;;;;;;;19.36;76.06;100759.31;5033213;28;20029;-70
2023/08/27 15:31:54;;;;;;;3.17;1.30;;;;;;;19.08;84.32;100752.66;5032626;28;20489;-68
2023/08/27 15:34:19;;;;;;;2.65;1.30;;;;;;;18.85;100.00;100755.00;5031185;28;20029;-67
2023/08/27 15:36:45;;;;;;;4.35;2.00;;;;;;;18.56;100.00;100758.41;5031151;28;20102;-68
2023/08/27 15:39:11;;;;;;;5.53;2.38;;;;;;;18.33;100.00;100765.34;5030334;28;20515;-68
2023/08/27 15:41:36;;;;;;;3.92;1.73;;;;;;;18.10;100.00;100772.28;5031163;28;20060;-68
2023/08/27 15:44:02;;;;;;;2.13;0.98;;;;;;;17.81;91.26;100761.06;5032488;28;20124;-69
2023/08/27 15:46:28;;;;;;;2.60;1.23;;;;;;;17.46;96.10;100765.47;5025375;28;20053;-67
2023/08/27 15:48:54;;;;;;;1.25;0.75;;;;;;;17.35;88.93;100756.44;5033137;28;20403;-67
2023/08/27 15:51:20;;;;;;;3.50;1.00;;;;;;;17.17;100.00;100764.06;5034155;28;20090;-70
2023/08/27 15:53:46;;;;;;;1.30;1.20;;;;;;;17.21;100.00;100769.00;5030892;28;20100;-66
2023/08/27 15:56:12;;;;;;;2.10;1.00;;;;;;;17.47;100.00;100765.19;5015775;28;20115;-70
2023/08/27 15:58:37;;;;;;;3.50;1.40;;;;;;;17.56;100.00;100761.88;5032277;28;20038;-70
2023/08/27 16:01:02;;;;;;;1.77;1.20;;;;;;;17.65;100.00;100761.09;5030106;28;20037;-69
2023/08/27 16:03:28;;;;;;;1.40;1.20;;;;;;;17.71;100.00;100761.91;5033114;28;20021;-70
